Time;durP1;ratioP1;P1;durP2;ratioP2;P2;SDS_P1;SDS_P2;PMS_P1;PMS_P2;Temp;Humidity;BMP_temperature;BMP_pressure;BME280_temperature;BME280_humidity;BME280_pressure;Samples;Min_cycle;Max_cycle;Signal;HPM_P1;HPM_P2
2021/07/16 00:02:21;;;;;;;9.93;7.47;;;;;;;19.51;100.00;100951.97;5075096;28;20257;-73
2021/07/16 00:04:46;;;;;;;10.10;7.27;;;;;;;19.45;100.00;100956.06;5092102;28;20254;-73
2021/07/16 00:07:11;;;;;;;11.20;7.60;;;;;;;19.41;100.00;100981.69;5091985;28;20201;-73
2021/07/16 00:09:37;;;;;;;10.37;7.27;;;;;;;19.37;100.00;100972.13;5092720;28;20530;-73
2021/07/16 00:12:02;;;;;;;12.20;8.17;;;;;;;19.39;100.00;100963.88;5092081;28;20219;-73
2021/07/16 00:14:28;;;;;;;14.17;8.13;;;;;;;19.36;100.00;100974.00;5093574;28;20190;-73
2021/07/16 00:16:54;;;;;;;15.40;8.67;;;;;;;19.35;100.00;101049.91;5077504;28;20162;-73
2021/07/16 00:19:20;;;;;;;14.57;8.87;;;;;;;19.28;100.00;101014.38;5095283;28;20194;-74
2021/07/16 00:21:45;;;;;;;9.83;8.77;;;;;;;19.27;100.00;101017.19;5094890;28;20658;-73
2021/07/16 00:24:10;;;;;;;19.33;8.70;;;;;;;19.29;100.00;101017.94;5092181;28;20181;-73
2021/07/16 00:26:36;;;;;;;11.60;9.20;;;;;;;19.25;100.00;101016.47;5074942;28;20187;-73
2021/07/16 00:29:01;;;;;;;14.63;10.17;;;;;;;19.23;100.00;101016.63;5091569;28;20198;-73
2021/07/16 00:31:27;;;;;;;15.73;11.23;;;;;;;19.23;100.00;101023.88;5074752;28;20199;-73
2021/07/16 00:33:52;;;;;;;16.37;10.97;;;;;;;19.19;100.00;101026.00;5091649;28;20228;-73
2021/07/16 00:36:18;;;;;;;11.20;9.30;;;;;;;19.22;100.00;101023.00;5091819;28;20193;-73
2021/07/16 00:38:44;;;;;;;14.60;9.60;;;;;;;19.27;100.00;101025.31;5091800;28;20538;-73
2021/07/16 00:41:09;;;;;;;11.93;8.87;;;;;;;19.32;100.00;101032.03;5075882;28;20170;-73
2021/07/16 00:43:35;;;;;;;10.50;8.20;;;;;;;19.36;100.00;101025.41;5078723;28;20234;-73
2021/07/16 00:46:00;;;;;;;11.33;9.03;;;;;;;19.37;100.00;101012.72;5079229;28;20177;-73
2021/07/16 00:48:25;;;;;;;13.60;9.53;;;;;;;19.33;100.00;101014.00;5096916;28;20634;-73
2021/07/16 00:50:52;;;;;;;12.10;8.97;;;;;;;19.34;100.00;101016.56;5096212;28;20171;-73
2021/07/16 00:53:18;;;;;;;16.87;9.70;;;;;;;19.32;100.00;101020.38;5096963;28;20661;-73
2021/07/16 00:55:45;;;;;;;18.17;10.90;;;;;;;19.32;100.00;101025.78;5095429;28;20209;-73
2021/07/16 00:58:11;;;;;;;11.87;9.47;;;;;;;19.33;100.00;101027.53;5078325;28;20185;-73
2021/07/16 01:00:36;;;;;;;18.90;9.30;;;;;;;19.34;100.00;101086.94;5078207;28;20179;-73
2021/07/16 01:03:02;;;;;;;14.00;9.33;;;;;;;19.38;100.00;101068.56;5095145;28;20170;-73
2021/07/16 01:05:27;;;;;;;15.23;9.53;;;;;;;19.39;100.00;101086.53;5095127;28;20221;-73
2021/07/16 01:07:53;;;;;;;20.83;10.87;;;;;;;19.31;100.00;101097.13;5078080;28;20343;-73
2021/07/16 01:10:20;;;;;;;15.90;10.27;;;;;;;19.22;100.00;101109.59;5078130;28;20181;-72
2021/07/16 01:12:51;;;;;;;11.33;9.43;;;;;;;19.18;100.00;101118.09;5078136;28;20635;-73
2021/07/16 01:15:19;;;;;;;14.80;9.33;;;;;;;19.11;100.00;101116.91;5078548;28;20220;-73
2021/07/16 01:17:44;;;;;;;14.17;9.13;;;;;;;19.09;100.00;101122.47;5078031;28;20204;-72
2021/07/16 01:20:12;;;;;;;14.03;8.97;;;;;;;19.10;100.00;101135.00;5077967;28;20174;-72
2021/07/16 01:22:39;;;;;;;15.00;10.17;;;;;;;19.04;100.00;101147.19;5077690;28;20269;-72
2021/07/16 01:25:07;;;;;;;15.10;9.77;;;;;;;19.08;100.00;101165.88;5094845;28;20194;-73
2021/07/16 01:27:34;;;;;;;15.43;11.27;;;;;;;19.09;100.00;101164.88;5095950;28;20194;-74
2021/07/16 01:30:00;;;;;;;11.43;9.87;;;;;;;19.10;100.00;101196.34;5095162;28;20175;-73
2021/07/16 01:32:26;;;;;;;16.60;9.60;;;;;;;19.09;100.00;101164.88;5078476;28;20174;-73
2021/07/16 01:34:51;;;;;;;14.83;10.13;;;;;;;19.03;100.00;101142.78;5095247;28;20193;-73
2021/07/16 01:37:17;;;;;;;17.63;10.60;;;;;;;19.00;100.00;101150.28;5078180;28;20177;-73
2021/07/16 01:39:42;;;;;;;19.57;8.50;;;;;;;19.01;100.00;101160.13;5094684;28;20174;-73
2021/07/16 01:42:09;;;;;;;14.47;10.70;;;;;;;19.03;100.00;101186.06;5095372;28;20174;-73
2021/07/16 01:44:35;;;;;;;15.93;11.70;;;;;;;19.10;100.00;101191.81;5094819;28;20235;-73
2021/07/16 01:47:01;;;;;;;18.00;9.43;;;;;;;19.07;100.00;101183.94;5095241;28;20286;-73
2021/07/16 01:49:27;;;;;;;15.30;10.83;;;;;;;19.07;100.00;101185.78;5078663;28;20174;-73
2021/07/16 01:51:52;;;;;;;17.60;10.27;;;;;;;19.09;100.00;101192.78;5095142;28;20181;-73
2021/07/16 01:54:18;;;;;;;16.00;9.83;;;;;;;19.11;100.00;101192.66;5077287;28;20206;-73
2021/07/16 01:56:43;;;;;;;15.33;10.90;;;;;;;19.20;100.00;101198.16;5095881;28;20220;-74
2021/07/16 01:59:08;;;;;;;17.93;10.60;;;;;;;19.26;100.00;101186.81;5094796;28;20181;-73
2021/07/16 02:01:34;;;;;;;14.80;11.30;;;;;;;19.31;100.00;101189.13;5079152;28;20220;-72
2021/07/16 02:03:59;;;;;;;14.37;10.70;;;;;;;19.35;100.00;101185.22;5079842;28;20217;-73
2021/07/16 02:06:24;;;;;;;16.90;11.37;;;;;;;19.41;100.00;101184.69;5079900;28;20198;-72
2021/07/16 02:08:49;;;;;;;19.73;11.47;;;;;;;19.49;100.00;101181.34;5077075;28;20182;-74
2021/07/16 02:11:16;;;;;;;16.47;10.70;;;;;;;19.57;100.00;101187.84;5097387;28;20170;-73
2021/07/16 02:13:42;;;;;;;16.47;10.83;;;;;;;19.62;100.00;101182.88;5096118;28;20174;-73
2021/07/16 02:16:07;;;;;;;14.03;9.57;;;;;;;19.65;100.00;101187.19;5112891;28;20171;-73
2021/07/16 02:18:33;;;;;;;18.50;11.47;;;;;;;19.67;100.00;101190.63;5113849;28;20175;-74
2021/07/16 02:20:59;;;;;;;14.90;10.87;;;;;;;19.76;100.00;101191.69;5077819;28;20178;-73
2021/07/16 02:23:26;;;;;;;19.77;13.67;;;;;;;19.79;100.00;101189.59;5095458;28;20664;-73
2021/07/16 02:25:52;;;;;;;18.97;13.67;;;;;;;19.80;100.00;101185.03;5076869;28;20178;-73
2021/07/16 02:28:28;;;;;;;16.77;11.97;;;;;;;19.81;100.00;101190.31;5076866;28;20708;-73
2021/07/16 02:30:54;;;;;;;14.33;11.20;;;;;;;19.77;100.00;101185.28;5093715;28;20166;-73
2021/07/16 02:33:21;;;;;;;31.27;11.27;;;;;;;19.66;100.00;101187.03;5076578;28;20182;-73
2021/07/16 02:35:46;;;;;;;15.13;11.33;;;;;;;19.61;100.00;101194.72;5076647;28;20225;-73
2021/07/16 02:38:12;;;;;;;50.43;13.43;;;;;;;19.50;100.00;101193.88;5076477;28;20202;-73
2021/07/16 02:40:38;;;;;;;19.87;11.77;;;;;;;19.47;100.00;101192.28;5093232;28;20599;-73
2021/07/16 02:43:04;;;;;;;39.47;12.80;;;;;;;19.42;100.00;101289.25;5093518;28;20253;-73
2021/07/16 02:45:29;;;;;;;22.10;13.00;;;;;;;19.47;100.00;101054.25;5093152;28;20216;-73
2021/07/16 02:47:55;;;;;;;27.50;12.43;;;;;;;19.49;100.00;101078.47;5093150;28;20690;-73
2021/07/16 02:50:25;;;;;;;21.07;11.77;;;;;;;19.55;100.00;101068.00;5076127;28;20232;-73
2021/07/16 02:52:50;;;;;;;20.27;12.67;;;;;;;19.55;100.00;101045.47;5094064;28;20639;-73
2021/07/16 02:55:16;;;;;;;19.10;13.07;;;;;;;19.60;100.00;101044.09;5075912;28;20283;-73
2021/07/16 02:57:42;;;;;;;19.43;16.00;;;;;;;19.61;100.00;101047.66;5075860;28;20273;-73
2021/07/16 03:00:10;;;;;;;18.90;13.90;;;;;;;19.61;100.00;101050.34;5093031;28;20213;-73
2021/07/16 03:02:43;;;;;;;19.20;14.20;;;;;;;19.61;100.00;101048.50;5092903;28;20174;-74
2021/07/16 03:05:09;;;;;;;18.10;11.97;;;;;;;19.58;100.00;101051.47;5092828;28;20193;-72
2021/07/16 03:07:35;;;;;;;17.30;12.50;;;;;;;19.58;100.00;101066.88;5092863;28;20288;-73
2021/07/16 03:10:01;;;;;;;11.17;9.90;;;;;;;19.56;100.00;101064.28;5076716;28;20182;-74
2021/07/16 03:12:26;;;;;;;13.10;10.17;;;;;;;19.57;100.00;101067.84;5092806;28;20279;-73
2021/07/16 03:14:51;;;;;;;14.87;11.77;;;;;;;19.56;100.00;101082.38;5075782;28;20539;-73
2021/07/16 03:17:16;;;;;;;16.30;10.67;;;;;;;19.52;100.00;101095.31;5093663;28;20243;-73
2021/07/16 03:19:42;;;;;;;15.10;9.93;;;;;;;19.41;100.00;101095.38;5092634;28;20174;-73
2021/07/16 03:22:07;;;;;;;13.43;9.73;;;;;;;19.51;100.00;101109.81;5075601;28;20220;-73
2021/07/16 03:24:32;;;;;;;15.33;8.90;;;;;;;19.45;100.00;101118.47;5092271;28;20194;-73
2021/07/16 03:26:58;;;;;;;17.87;9.70;;;;;;;19.41;100.00;101135.13;5092321;28;20198;-73
2021/07/16 03:29:23;;;;;;;16.37;8.13;;;;;;;19.26;100.00;101142.66;5093973;28;20174;-72
2021/07/16 03:31:48;;;;;;;26.90;9.07;;;;;;;19.14;100.00;101144.56;5092521;28;20225;-73
2021/07/16 03:34:13;;;;;;;14.50;8.73;;;;;;;19.16;100.00;101163.38;5094112;28;20194;-73
2021/07/16 03:36:39;;;;;;;21.60;8.83;;;;;;;19.10;100.00;101163.91;5075505;28;20185;-73
2021/07/16 03:39:04;;;;;;;16.23;8.37;;;;;;;19.07;100.00;101174.97;5075370;28;20181;-73
2021/07/16 03:41:30;;;;;;;23.33;8.80;;;;;;;19.10;100.00;101193.66;5092364;28;20182;-73
2021/07/16 03:43:55;;;;;;;16.53;8.97;;;;;;;19.09;100.00;101200.06;5092265;28;20670;-73
2021/07/16 03:46:21;;;;;;;13.27;8.70;;;;;;;19.08;100.00;101210.00;5093340;28;20624;-73
2021/07/16 03:48:46;;;;;;;11.97;9.50;;;;;;;19.22;100.00;101216.97;5075832;28;20178;-72
2021/07/16 03:51:11;;;;;;;14.17;8.80;;;;;;;19.21;100.00;101215.25;5092388;28;20185;-73
2021/07/16 03:53:37;;;;;;;15.67;8.97;;;;;;;19.25;100.00;101223.00;5091772;28;20642;-73
2021/07/16 03:56:02;;;;;;;16.73;9.10;;;;;;;19.27;100.00;101242.66;5076406;28;20182;-72
2021/07/16 03:58:27;;;;;;;17.10;13.30;;;;;;;19.33;100.00;101252.16;5075263;28;20204;-73
2021/07/16 04:00:53;;;;;;;17.47;11.43;;;;;;;19.37;100.00;101250.91;5092961;28;20174;-73
2021/07/16 04:03:21;;;;;;;23.37;12.17;;;;;;;19.41;100.00;101265.91;5093836;28;20217;-73
2021/07/16 04:05:46;;;;;;;17.53;9.90;;;;;;;19.42;100.00;101275.72;5092009;28;20289;-73
2021/07/16 04:08:17;;;;;;;29.17;8.93;;;;;;;19.44;100.00;101264.78;5093261;28;20196;-73
2021/07/16 04:10:42;;;;;;;19.73;9.20;;;;;;;19.47;100.00;101299.72;5075800;28;20198;-73
2021/07/16 04:13:10;;;;;;;15.67;8.73;;;;;;;19.48;100.00;101313.13;5092112;28;20247;-73
2021/07/16 04:15:36;;;;;;;19.03;7.73;;;;;;;19.48;100.00;101328.50;5092121;28;20217;-73
2021/07/16 04:18:03;;;;;;;21.57;8.60;;;;;;;19.47;100.00;101308.69;5079105;28;20216;-74
2021/07/16 04:20:29;;;;;;;16.07;7.57;;;;;;;19.43;100.00;101328.03;5079368;28;20182;-73
2021/07/16 04:22:56;;;;;;;13.73;9.17;;;;;;;19.41;100.00;101335.41;5079341;28;20184;-73
2021/07/16 04:25:21;;;;;;;13.47;7.93;;;;;;;19.38;100.00;101335.66;5095923;28;20198;-74
2021/07/16 04:27:48;;;;;;;19.87;9.07;;;;;;;19.42;100.00;101369.63;5096070;28;20203;-73
2021/07/16 04:30:15;;;;;;;16.77;10.23;;;;;;;19.51;100.00;101379.69;5096133;28;20242;-73
2021/07/16 04:32:41;;;;;;;12.57;10.53;;;;;;;19.65;100.00;101366.75;5095849;28;20178;-73
2021/07/16 04:35:08;;;;;;;17.27;9.53;;;;;;;19.72;100.00;101413.16;5095922;28;20281;-73
2021/07/16 04:37:37;;;;;;;26.53;9.27;;;;;;;19.72;100.00;101405.03;5095935;28;20180;-73
2021/07/16 04:40:07;;;;;;;13.20;9.07;;;;;;;19.74;100.00;101423.88;5079649;28;20186;-74
2021/07/16 04:42:33;;;;;;;19.03;9.90;;;;;;;19.74;100.00;101440.13;5078548;28;20277;-73
2021/07/16 04:44:58;;;;;;;15.07;8.60;;;;;;;19.83;100.00;101452.91;5095734;28;20637;-73
2021/07/16 04:47:23;;;;;;;12.17;8.50;;;;;;;19.84;100.00;101469.03;5095661;28;20281;-73
2021/07/16 04:49:48;;;;;;;14.13;7.70;;;;;;;19.84;100.00;101473.59;5095798;28;20200;-73
2021/07/16 04:52:14;;;;;;;12.00;7.93;;;;;;;19.90;100.00;101473.06;5097202;28;20174;-72
2021/07/16 04:54:39;;;;;;;11.67;7.50;;;;;;;19.93;100.00;101480.94;5078721;28;20704;-72
2021/07/16 04:57:08;;;;;;;11.33;8.40;;;;;;;19.96;100.00;101480.69;5096021;28;20174;-73
2021/07/16 04:59:33;;;;;;;16.83;9.07;;;;;;;20.00;100.00;101446.94;5079603;28;20170;-73
2021/07/16 05:01:59;;;;;;;15.83;8.43;;;;;;;20.08;100.00;101449.03;5096513;28;20230;-73
2021/07/16 05:04:24;;;;;;;12.30;7.87;;;;;;;20.12;100.00;101454.06;5097298;28;20557;-73
2021/07/16 05:06:49;;;;;;;16.37;7.63;;;;;;;20.16;100.00;101441.97;5097406;28;20190;-73
2021/07/16 05:09:16;;;;;;;19.33;8.83;;;;;;;20.24;100.00;101444.91;5097685;28;20170;-73
2021/07/16 05:11:41;;;;;;;15.07;7.77;;;;;;;20.26;100.00;101434.78;5097669;28;20175;-73
2021/07/16 05:14:07;;;;;;;21.73;8.60;;;;;;;20.40;100.00;101427.38;5096363;28;20553;-74
2021/07/16 05:16:32;;;;;;;16.27;8.43;;;;;;;20.48;100.00;101428.47;5095341;28;20631;-73
2021/07/16 05:18:57;;;;;;;22.03;8.90;;;;;;;20.56;99.03;101416.97;5078926;28;20228;-74
2021/07/16 05:21:23;;;;;;;20.10;9.80;;;;;;;20.58;98.55;101421.25;5095901;28;20530;-74
2021/07/16 05:23:48;;;;;;;13.60;8.50;;;;;;;20.61;98.76;101417.41;5096709;28;20194;-74
2021/07/16 05:26:13;;;;;;;24.87;8.97;;;;;;;20.58;99.06;101414.97;5095788;28;20174;-73
2021/07/16 05:28:39;;;;;;;14.03;7.50;;;;;;;20.70;99.29;101418.47;5094714;28;20189;-73
2021/07/16 05:31:04;;;;;;;19.87;8.37;;;;;;;20.75;98.42;101424.34;5094901;28;20530;-73
2021/07/16 05:33:30;;;;;;;9.47;6.50;;;;;;;20.90;98.46;101429.34;5077691;28;20181;-73
2021/07/16 05:35:55;;;;;;;23.37;11.03;;;;;;;21.06;96.48;101417.97;5077655;28;20261;-72
2021/07/16 05:38:22;;;;;;;13.30;9.67;;;;;;;21.11;95.18;101425.72;5094467;28;20587;-74
2021/07/16 05:40:48;;;;;;;17.03;11.03;;;;;;;21.25;94.92;101430.84;5078585;28;20272;-75
2021/07/16 05:43:13;;;;;;;27.50;10.73;;;;;;;21.24;95.13;101411.97;5094517;28;20197;-72
2021/07/16 05:45:40;;;;;;;14.63;7.80;;;;;;;21.26;96.00;101421.69;5077527;28;20221;-72
2021/07/16 05:48:06;;;;;;;18.60;9.37;;;;;;;21.40;94.94;101424.03;5077596;28;20205;-72
2021/07/16 05:50:32;;;;;;;16.60;10.03;;;;;;;21.54;94.24;101426.38;5077575;28;20223;-72
2021/07/16 05:52:58;;;;;;;18.00;9.57;;;;;;;21.63;93.70;101432.00;5094253;28;20178;-72
2021/07/16 05:55:23;;;;;;;19.07;8.97;;;;;;;21.72;93.34;101431.16;5094111;28;20551;-73
2021/07/16 05:57:49;;;;;;;18.57;8.73;;;;;;;21.79;93.09;101419.59;5077587;28;20174;-71
2021/07/16 06:00:15;;;;;;;16.30;8.60;;;;;;;21.90;92.52;101415.88;5095401;28;20254;-71
2021/07/16 06:02:41;;;;;;;17.07;8.70;;;;;;;21.94;91.87;101414.63;5077304;28;20581;-73
2021/07/16 06:05:06;;;;;;;14.40;7.93;;;;;;;22.01;92.16;101404.91;5094335;28;20242;-73
2021/07/16 06:07:32;;;;;;;19.73;9.40;;;;;;;22.10;92.07;101474.75;5077628;28;20194;-73
2021/07/16 06:09:57;;;;;;;13.90;8.27;;;;;;;22.22;91.31;101355.00;5094242;28;20207;-73
2021/07/16 06:12:22;;;;;;;21.83;8.43;;;;;;;22.27;91.20;101326.38;5094064;28;20175;-73
2021/07/16 06:14:55;;;;;;;21.20;8.53;;;;;;;22.34;91.07;101310.34;5077011;28;20208;-73
2021/07/16 06:17:25;;;;;;;11.40;7.60;;;;;;;22.39;91.21;101324.38;5094108;28;20158;-73
2021/07/16 06:19:50;;;;;;;18.03;8.50;;;;;;;22.48;90.93;101315.34;5077056;28;20175;-73
2021/07/16 06:22:15;;;;;;;17.57;7.13;;;;;;;22.54;88.72;101313.88;5094253;28;20526;-73
2021/07/16 06:24:41;;;;;;;18.27;8.07;;;;;;;22.65;90.40;101321.88;5076871;28;20229;-73
2021/07/16 06:27:06;;;;;;;13.57;8.23;;;;;;;22.61;91.09;101310.41;5076924;28;20194;-72
2021/07/16 06:29:32;;;;;;;33.00;15.20;;;;;;;22.77;90.88;101324.28;5094227;28;20170;-73
2021/07/16 06:31:57;;;;;;;17.27;8.33;;;;;;;22.90;87.03;101318.53;5093958;28;20181;-73
2021/07/16 06:34:22;;;;;;;12.50;7.43;;;;;;;22.99;85.64;101328.50;5101444;28;20209;-74
2021/07/16 06:36:48;;;;;;;12.30;6.87;;;;;;;23.08;82.40;101335.81;5094400;28;20178;-74
2021/07/16 06:39:13;;;;;;;7.23;5.07;;;;;;;23.14;80.71;101328.91;5093748;28;20627;-74
2021/07/16 06:41:38;;;;;;;8.17;5.77;;;;;;;23.21;78.85;101331.88;5094474;28;20256;-72
2021/07/16 06:44:04;;;;;;;10.23;5.50;;;;;;;23.27;79.72;101326.66;5106143;28;20194;-74
2021/07/16 06:46:29;;;;;;;6.97;5.50;;;;;;;23.35;79.96;101323.19;5095832;28;20201;-74
2021/07/16 06:48:54;;;;;;;7.67;6.57;;;;;;;23.43;80.85;101330.63;5095992;28;20245;-74
2021/07/16 06:51:20;;;;;;;9.33;6.13;;;;;;;23.47;80.95;101332.88;5086217;28;20182;-74
2021/07/16 06:53:46;;;;;;;8.43;5.43;;;;;;;23.56;81.39;101326.53;5095121;28;20170;-74
2021/07/16 06:56:11;;;;;;;10.57;5.73;;;;;;;23.68;79.30;101444.34;5077150;28;20516;-74
2021/07/16 06:58:36;;;;;;;25.00;18.73;;;;;;;23.76;79.14;101408.16;5095353;28;20530;-74
2021/07/16 07:01:01;;;;;;;22.73;15.33;;;;;;;23.80;79.45;101387.78;5094818;28;20175;-74
2021/07/16 07:03:27;;;;;;;9.17;7.00;;;;;;;23.86;79.24;101382.56;5076777;28;20227;-76
2021/07/16 07:05:56;;;;;;;7.50;6.70;;;;;;;23.90;79.10;101378.50;5096191;28;20170;-74
2021/07/16 07:08:21;;;;;;;7.17;5.80;;;;;;;24.02;78.68;101381.88;5094226;28;20230;-75
2021/07/16 07:10:47;;;;;;;8.20;4.87;;;;;;;24.15;77.83;101370.56;5080466;28;20182;-73
2021/07/16 07:13:12;;;;;;;5.00;4.50;;;;;;;24.25;75.59;101369.50;5097930;28;20169;-73
2021/07/16 07:15:38;;;;;;;7.00;5.10;;;;;;;24.36;74.32;101365.69;5094535;28;20221;-73
2021/07/16 07:18:07;;;;;;;6.00;4.63;;;;;;;24.38;73.94;101366.38;5096058;28;20167;-75
2021/07/16 07:20:33;;;;;;;9.80;4.80;;;;;;;24.45;74.04;101362.00;5080699;28;20642;-74
2021/07/16 07:23:00;;;;;;;4.73;4.33;;;;;;;24.53;74.20;101370.28;5076079;28;20174;-72
2021/07/16 07:25:25;;;;;;;4.80;4.30;;;;;;;24.65;72.70;101391.84;5096584;28;20243;-75
2021/07/16 07:27:50;;;;;;;5.33;4.13;;;;;;;24.72;72.19;106174.91;5093165;28;20198;-74
2021/07/16 07:30:16;;;;;;;4.57;4.13;;;;;;;24.76;71.19;107647.13;5093117;28;20223;-74
2021/07/16 07:32:41;;;;;;;11.00;8.10;;;;;;;24.84;70.38;105578.75;5093984;28;20630;-73
2021/07/16 07:35:21;;;;;;;8.43;6.57;;;;;;;25.00;70.12;107780.09;5097167;28;20577;-74
2021/07/16 07:37:47;;;;;;;6.23;4.57;;;;;;;25.09;69.62;105114.00;5094975;28;20170;-73
2021/07/16 07:40:14;;;;;;;5.37;4.87;;;;;;;24.87;69.93;106127.97;5094938;28;20181;-73
2021/07/16 07:42:40;;;;;;;6.47;4.90;;;;;;;24.95;69.95;105256.75;5092766;28;20201;-73
2021/07/16 07:45:07;;;;;;;5.00;4.30;;;;;;;25.04;70.08;104676.91;5076135;28;20607;-74
2021/07/16 07:47:33;;;;;;;5.20;3.83;;;;;;;25.21;68.55;104250.41;5093280;28;20199;-73
2021/07/16 07:50:08;;;;;;;5.60;4.10;;;;;;;25.32;68.39;104881.34;5097900;28;20267;-74
2021/07/16 07:52:33;;;;;;;12.90;4.50;;;;;;;25.39;68.47;106099.88;5101100;28;20172;-74
2021/07/16 07:54:59;;;;;;;11.67;4.93;;;;;;;25.41;67.52;103966.69;5100949;28;20213;-73
2021/07/16 07:57:24;;;;;;;5.50;4.17;;;;;;;25.37;68.42;103566.88;5095924;28;20219;-73
2021/07/16 07:59:50;;;;;;;6.17;4.33;;;;;;;25.50;66.80;103329.84;5075403;28;20176;-74
2021/07/16 08:02:15;;;;;;;7.47;4.67;;;;;;;25.61;67.31;106476.78;5092792;28;20209;-73
2021/07/16 08:04:41;;;;;;;5.50;4.13;;;;;;;25.79;66.21;104416.41;5092268;28;20220;-73
2021/07/16 08:07:06;;;;;;;5.27;4.53;;;;;;;26.04;66.46;103953.22;5075716;28;20194;-74
2021/07/16 08:09:32;;;;;;;11.07;4.60;;;;;;;26.19;65.79;104819.13;5092180;28;20166;-74
2021/07/16 08:11:58;;;;;;;6.57;4.60;;;;;;;26.36;63.94;103715.47;5075257;28;20181;-74
2021/07/16 08:14:23;;;;;;;6.83;5.10;;;;;;;26.27;63.96;103116.66;5092148;28;20186;-74
2021/07/16 08:16:48;;;;;;;7.33;4.37;;;;;;;26.37;64.42;103010.00;5093016;28;20166;-74
2021/07/16 08:19:18;;;;;;;8.10;4.03;;;;;;;26.45;64.59;102898.84;5092261;28;20220;-74
2021/07/16 08:21:47;;;;;;;5.60;4.10;;;;;;;26.66;64.91;102780.19;5092666;28;20166;-73
2021/07/16 08:24:13;;;;;;;8.73;7.83;;;;;;;26.96;62.68;102708.88;5092086;28;20190;-73
2021/07/16 08:26:39;;;;;;;7.93;5.30;;;;;;;27.03;62.01;102630.59;5075205;28;20243;-74
2021/07/16 08:29:04;;;;;;;6.53;4.50;;;;;;;26.78;61.42;102536.16;5092097;28;20174;-74
2021/07/16 08:31:29;;;;;;;6.87;3.90;;;;;;;26.91;62.35;102477.44;5094228;28;20170;-74
2021/07/16 08:33:55;;;;;;;4.23;3.80;;;;;;;26.84;61.58;102515.53;5075249;28;20198;-73
2021/07/16 08:36:20;;;;;;;9.30;4.27;;;;;;;26.91;61.19;102492.00;5093216;28;20508;-74
2021/07/16 08:38:46;;;;;;;5.87;3.97;;;;;;;26.83;61.31;102417.94;5094437;28;20181;-73
2021/07/16 08:41:11;;;;;;;7.40;3.77;;;;;;;27.01;61.05;102363.25;5093027;28;20175;-74
2021/07/16 08:43:40;;;;;;;5.07;3.63;;;;;;;27.37;60.51;102535.03;5092783;28;20181;-73
2021/07/16 08:46:06;;;;;;;4.23;3.83;;;;;;;27.73;60.01;102376.09;5076892;28;20196;-73
2021/07/16 08:48:31;;;;;;;4.50;3.77;;;;;;;27.34;58.54;102564.63;5097426;28;20261;-74
2021/07/16 08:50:58;;;;;;;4.90;3.83;;;;;;;27.26;57.62;102315.94;5093440;28;20170;-73
2021/07/16 08:53:24;;;;;;;6.50;4.30;;;;;;;27.30;58.81;102259.78;5095584;28;20174;-73
2021/07/16 08:55:50;;;;;;;5.37;4.00;;;;;;;27.17;58.95;102226.44;5093937;28;20201;-74
2021/07/16 08:58:15;;;;;;;6.23;4.13;;;;;;;27.73;57.56;102161.28;5075299;28;20170;-74
2021/07/16 09:00:40;;;;;;;13.07;4.00;;;;;;;28.47;55.63;102279.59;5075091;28;20170;-74
2021/07/16 09:03:10;;;;;;;5.97;3.80;;;;;;;28.12;56.75;102178.16;5077874;28;20174;-73
2021/07/16 09:05:39;;;;;;;7.03;3.40;;;;;;;28.41;56.18;102118.28;5096589;28;20190;-75
2021/07/16 09:08:12;;;;;;;6.90;3.90;;;;;;;28.34;54.56;102051.34;5096850;28;20549;-74
2021/07/16 09:10:42;;;;;;;9.50;3.53;;;;;;;28.72;52.55;102022.38;5097603;28;20660;-75
2021/07/16 09:13:09;;;;;;;3.80;3.40;;;;;;;28.86;53.18;101969.50;5098198;28;20177;-74
2021/07/16 09:15:34;;;;;;;6.60;3.70;;;;;;;28.56;54.96;101929.84;5098465;28;20704;-74
2021/07/16 09:18:18;;;;;;;5.93;3.00;;;;;;;28.35;52.77;101838.06;5099752;28;20171;-73
2021/07/16 09:20:44;;;;;;;7.00;3.23;;;;;;;28.50;53.90;101864.63;5103419;28;20174;-75
2021/07/16 09:23:19;;;;;;;6.57;4.27;;;;;;;28.94;51.93;101815.63;5100502;28;20173;-73
2021/07/16 09:26:00;;;;;;;4.40;3.30;;;;;;;29.05;50.54;101764.91;5099998;28;20205;-74
2021/07/16 09:28:26;;;;;;;9.80;3.20;;;;;;;28.94;51.38;101738.69;5112907;28;20274;-73
2021/07/16 09:30:53;;;;;;;5.47;3.13;;;;;;;27.89;52.02;101692.31;5112639;28;20173;-73
2021/07/16 09:33:19;;;;;;;7.93;3.03;;;;;;;27.95;51.64;101665.03;5113386;28;20195;-73
2021/07/16 09:35:44;;;;;;;4.80;2.90;;;;;;;28.47;49.77;101667.28;5096298;28;20194;-73
2021/07/16 09:38:17;;;;;;;3.27;2.63;;;;;;;28.72;49.50;101637.81;5113184;28;20186;-73
2021/07/16 09:40:47;;;;;;;3.73;2.53;;;;;;;28.38;50.03;101646.41;5095404;28;20189;-73
2021/07/16 09:43:16;;;;;;;4.43;2.80;;;;;;;28.56;48.83;101636.00;5108587;28;20268;-74
2021/07/16 09:46:03;;;;;;;5.80;2.73;;;;;;;28.99;47.40;101638.34;5079380;28;20225;-73
2021/07/16 09:48:34;;;;;;;3.10;2.60;;;;;;;28.98;46.39;101620.16;5095994;28;20284;-73
2021/07/16 09:51:25;;;;;;;5.87;2.50;;;;;;;29.04;48.06;101595.56;5078531;28;20193;-74
2021/07/16 09:56:23;;;;;;;3.47;2.57;;;;;;;29.36;47.39;101612.81;5097013;22;20227;-72
2021/07/16 09:58:59;;;;;;;4.33;2.50;;;;;;;29.14;46.91;101578.84;5090764;28;20543;-72
2021/07/16 10:01:29;;;;;;;3.17;2.50;;;;;;;29.34;47.23;101570.91;5075216;28;20205;-72
2021/07/16 10:03:59;;;;;;;3.33;2.53;;;;;;;29.46;45.79;101564.81;5075036;28;20631;-70
2021/07/16 10:06:27;;;;;;;4.47;2.73;;;;;;;29.53;45.01;101553.91;5053927;28;20635;-70
2021/07/16 10:08:53;;;;;;;4.07;2.53;;;;;;;29.49;45.70;101534.19;5055048;28;20175;-69
2021/07/16 10:11:19;;;;;;;3.73;2.40;;;;;;;29.48;46.80;101513.25;5070350;28;20167;-70
2021/07/16 10:13:45;;;;;;;9.23;2.70;;;;;;;29.41;46.65;101501.25;5069756;28;20258;-71
2021/07/16 10:16:13;;;;;;;3.73;3.07;;;;;;;29.36;46.63;101484.44;5053689;28;20632;-71
2021/07/16 10:18:39;;;;;;;4.07;2.87;;;;;;;28.88;48.30;101466.56;5070513;28;20179;-71
2021/07/16 10:21:04;;;;;;;5.60;2.87;;;;;;;28.64;48.84;101460.22;5053754;28;20636;-71
2021/07/16 10:23:31;;;;;;;3.90;2.90;;;;;;;29.25;46.43;101463.78;5053638;28;20182;-71
2021/07/16 10:25:57;;;;;;;9.00;3.20;;;;;;;29.18;45.97;101437.25;5054347;28;20200;-71
2021/07/16 10:28:41;;;;;;;8.60;3.08;;;;;;;29.42;44.59;101450.72;5054310;28;20238;-70
2021/07/16 10:31:30;;;;;;;5.85;3.05;;;;;;;29.82;45.27;101440.28;5037122;28;20167;-71
2021/07/16 10:33:56;;;;;;;5.60;2.95;;;;;;;30.45;43.73;101455.19;5055187;28;20190;-71
2021/07/16 10:36:37;;;;;;;3.28;2.78;;;;;;;30.39;44.14;101478.88;5052990;28;20191;-71
2021/07/16 10:39:03;;;;;;;9.73;2.85;;;;;;;30.50;41.91;101458.25;5054699;28;20171;-71
2021/07/16 10:41:30;;;;;;;4.57;2.83;;;;;;;30.47;42.50;101439.34;5052938;28;20639;-71
2021/07/16 10:43:56;;;;;;;3.42;2.20;;;;;;;30.34;43.79;101433.72;5052981;28;20635;-70
2021/07/16 10:46:48;;;;;;;3.75;3.10;;;;;;;29.19;42.78;101372.97;5052723;28;20200;-70
2021/07/16 10:49:14;;;;;;;4.28;3.05;;;;;;;29.96;42.37;101413.78;5051045;28;20191;-72
2021/07/16 10:51:40;;;;;;;5.20;3.00;;;;;;;30.16;42.17;101392.88;5054237;28;20179;-71
2021/07/16 10:54:10;;;;;;;6.30;3.35;;;;;;;30.53;42.55;101405.53;5052622;28;20649;-71
2021/07/16 10:56:37;;;;;;;5.22;3.10;;;;;;;30.39;43.16;101400.91;5069624;28;20187;-71
2021/07/16 10:59:03;;;;;;;4.70;3.17;;;;;;;30.96;42.25;101405.47;5052706;28;20259;-71
2021/07/16 11:01:33;;;;;;;7.88;3.83;;;;;;;31.90;40.98;101419.59;5053805;28;20254;-71
2021/07/16 11:04:01;;;;;;;7.78;3.92;;;;;;;32.71;38.84;101527.34;5053796;28;20155;-70
2021/07/16 11:06:46;;;;;;;5.68;3.80;;;;;;;31.77;40.72;101447.16;5054106;28;20167;-71
2021/07/16 11:09:11;;;;;;;4.07;3.15;;;;;;;33.25;37.92;101442.31;5053779;28;20242;-70
2021/07/16 11:11:39;;;;;;;6.78;4.00;;;;;;;34.18;36.40;101461.41;5053887;28;20183;-71
2021/07/16 11:14:04;;;;;;;5.53;4.30;;;;;;;35.51;33.03;101461.25;5053843;28;20195;-71
2021/07/16 11:16:31;;;;;;;5.13;3.72;;;;;;;35.95;31.84;101460.09;5053628;28;20199;-71